sensor_id;sensor_type;location;lat;lon;timestamp;pressure;altitude;pressure_sealevel;temperature;humidity
64876;BME280;51369;49.862;9.908;2022-11-11T00:02:08;99768.31;;;6.59;83.88
64876;BME280;51369;49.862;9.908;2022-11-11T00:04:52;99774.59;;;6.55;84.17
64876;BME280;51369;49.862;9.908;2022-11-11T00:07:36;99767.44;;;6.52;83.81
64876;BME280;51369;49.862;9.908;2022-11-11T00:10:20;99771.94;;;6.48;83.68
64876;BME280;51369;49.862;9.908;2022-11-11T00:13:03;99769.28;;;6.45;84.27
64876;BME280;51369;49.862;9.908;2022-11-11T00:15:50;99767.50;;;6.41;84.23
64876;BME280;51369;49.862;9.908;2022-11-11T00:18:35;99770.19;;;6.35;83.80
64876;BME280;51369;49.862;9.908;2022-11-11T00:21:38;99763.06;;;6.34;83.92
64876;BME280;51369;49.862;9.908;2022-11-11T00:24:40;99776.47;;;6.33;84.73
64876;BME280;51369;49.862;9.908;2022-11-11T00:27:43;99784.53;;;6.31;83.96
64876;BME280;51369;49.862;9.908;2022-11-11T00:30:27;99783.63;;;6.31;84.28
64876;BME280;51369;49.862;9.908;2022-11-11T00:33:12;99789.88;;;6.34;84.55
64876;BME280;51369;49.862;9.908;2022-11-11T00:35:55;99794.34;;;6.37;85.19
64876;BME280;51369;49.862;9.908;2022-11-11T00:38:40;99801.47;;;6.41;85.22
64876;BME280;51369;49.862;9.908;2022-11-11T00:41:30;99799.69;;;6.46;85.22
64876;BME280;51369;49.862;9.908;2022-11-11T00:44:14;99808.59;;;6.51;85.19
64876;BME280;51369;49.862;9.908;2022-11-11T00:46:58;99810.38;;;6.58;85.52
64876;BME280;51369;49.862;9.908;2022-11-11T00:50:13;99812.13;;;6.64;85.42
64876;BME280;51369;49.862;9.908;2022-11-11T00:53:50;99812.09;;;6.70;85.55
64876;BME280;51369;49.862;9.908;2022-11-11T00:56:27;99816.53;;;6.77;85.31
64876;BME280;51369;49.862;9.908;2022-11-11T00:59:12;99822.78;;;6.80;85.59
64876;BME280;51369;49.862;9.908;2022-11-11T01:01:56;99820.97;;;6.85;85.88
64876;BME280;51369;49.862;9.908;2022-11-11T01:04:40;99826.34;;;6.87;85.76
64876;BME280;51369;49.862;9.908;2022-11-11T01:07:24;99818.34;;;6.78;84.67
64876;BME280;51369;49.862;9.908;2022-11-11T01:10:08;99811.22;;;6.68;84.28
64876;BME280;51369;49.862;9.908;2022-11-11T01:12:53;99807.66;;;6.61;84.07
64876;BME280;51369;49.862;9.908;2022-11-11T01:16:03;99814.84;;;6.55;84.17
64876;BME280;51369;49.862;9.908;2022-11-11T01:18:48;99821.13;;;6.47;83.52
64876;BME280;51369;49.862;9.908;2022-11-11T01:21:32;99815.78;;;6.41;83.80
64876;BME280;51369;49.862;9.908;2022-11-11T01:24:16;99819.38;;;6.33;83.68
64876;BME280;51369;49.862;9.908;2022-11-11T01:27:00;99825.66;;;6.24;83.13
64876;BME280;51369;49.862;9.908;2022-11-11T01:29:44;99830.16;;;6.16;82.86
64876;BME280;51369;49.862;9.908;2022-11-11T01:32:29;99839.09;;;6.09;83.16
64876;BME280;51369;49.862;9.908;2022-11-11T01:35:13;99827.50;;;6.05;82.70
64876;BME280;51369;49.862;9.908;2022-11-11T01:37:58;99823.03;;;6.01;83.23
64876;BME280;51369;49.862;9.908;2022-11-11T01:40:43;99831.97;;;5.97;82.61
64876;BME280;51369;49.862;9.908;2022-11-11T01:43:28;99840.00;;;5.93;83.29
64876;BME280;51369;49.862;9.908;2022-11-11T01:46:25;99840.88;;;5.87;82.82
64876;BME280;51369;49.862;9.908;2022-11-11T01:49:36;99841.75;;;5.84;83.32
64876;BME280;51369;49.862;9.908;2022-11-11T01:52:31;99842.66;;;5.86;83.45
64876;BME280;51369;49.862;9.908;2022-11-11T01:55:18;99844.44;;;5.86;84.06
64876;BME280;51369;49.862;9.908;2022-11-11T01:58:05;99832.84;;;5.84;83.82
64876;BME280;51369;49.862;9.908;2022-11-11T02:00:51;99833.72;;;5.83;83.85
64876;BME280;51369;49.862;9.908;2022-11-11T02:03:39;99837.31;;;5.82;84.07
64876;BME280;51369;49.862;9.908;2022-11-11T02:06:23;99838.19;;;5.82;83.81
64876;BME280;51369;49.862;9.908;2022-11-11T02:09:08;99840.88;;;5.85;85.01
64876;BME280;51369;49.862;9.908;2022-11-11T02:11:53;99831.06;;;5.89;85.39
64876;BME280;51369;49.862;9.908;2022-11-11T02:14:58;99823.94;;;5.93;84.65
64876;BME280;51369;49.862;9.908;2022-11-11T02:17:45;99823.94;;;5.90;84.99
64876;BME280;51369;49.862;9.908;2022-11-11T02:20:35;99828.38;;;5.84;84.61
64876;BME280;51369;49.862;9.908;2022-11-11T02:23:41;99838.19;;;5.82;84.10
64876;BME280;51369;49.862;9.908;2022-11-11T02:26:29;99838.19;;;5.85;84.53
64876;BME280;51369;49.862;9.908;2022-11-11T02:29:17;99849.84;;;5.91;85.37
64876;BME280;51369;49.862;9.908;2022-11-11T02:32:03;99842.69;;;5.94;85.10
64876;BME280;51369;49.862;9.908;2022-11-11T02:34:47;99836.44;;;5.98;85.70
64876;BME280;51369;49.862;9.908;2022-11-11T02:37:31;99836.44;;;6.00;85.25
64876;BME280;51369;49.862;9.908;2022-11-11T02:40:18;99836.44;;;6.00;85.53
64876;BME280;51369;49.862;9.908;2022-11-11T02:43:04;99840.91;;;6.02;85.22
64876;BME280;51369;49.862;9.908;2022-11-11T02:45:48;99830.16;;;6.01;84.97
64876;BME280;51369;49.862;9.908;2022-11-11T02:48:33;99841.78;;;5.95;85.07
64876;BME280;51369;49.862;9.908;2022-11-11T02:51:16;99839.13;;;5.94;84.44
64876;BME280;51369;49.862;9.908;2022-11-11T02:54:01;99823.94;;;5.90;83.93
64876;BME280;51369;49.862;9.908;2022-11-11T02:56:45;99829.25;;;5.86;84.20
64876;BME280;51369;49.862;9.908;2022-11-11T02:59:47;99819.44;;;5.82;83.83
64876;BME280;51369;49.862;9.908;2022-11-11T03:02:32;99806.94;;;5.78;84.10
64876;BME280;51369;49.862;9.908;2022-11-11T03:05:15;99809.63;;;5.74;83.52
64876;BME280;51369;49.862;9.908;2022-11-11T03:07:59;99813.19;;;5.71;83.47
64876;BME280;51369;49.862;9.908;2022-11-11T03:10:43;99826.59;;;5.65;83.25
64876;BME280;51369;49.862;9.908;2022-11-11T03:13:28;99832.84;;;5.58;83.16
64876;BME280;51369;49.862;9.908;2022-11-11T03:16:12;99828.38;;;5.55;83.14
64876;BME280;51369;49.862;9.908;2022-11-11T03:19:17;99837.28;;;5.59;83.71
64876;BME280;51369;49.862;9.908;2022-11-11T03:22:01;99849.81;;;5.62;84.64
64876;BME280;51369;49.862;9.908;2022-11-11T03:24:45;99849.81;;;5.65;84.11
64876;BME280;51369;49.862;9.908;2022-11-11T03:28:19;99850.69;;;5.68;84.31
64876;BME280;51369;49.862;9.908;2022-11-11T03:31:03;99852.50;;;5.72;85.12
64876;BME280;51369;49.862;9.908;2022-11-11T03:33:47;99851.59;;;5.75;84.43
64876;BME280;51369;49.862;9.908;2022-11-11T03:36:31;99864.09;;;5.79;84.96
64876;BME280;51369;49.862;9.908;2022-11-11T03:39:35;99868.56;;;5.81;84.72
64876;BME280;51369;49.862;9.908;2022-11-11T03:42:20;99868.56;;;5.84;85.26
64876;BME280;51369;49.862;9.908;2022-11-11T03:45:04;99863.22;;;5.87;85.16
64876;BME280;51369;49.862;9.908;2022-11-11T03:47:48;99858.78;;;5.91;84.86
64876;BME280;51369;49.862;9.908;2022-11-11T03:50:33;99863.25;;;5.95;85.72
64876;BME280;51369;49.862;9.908;2022-11-11T03:53:18;99858.78;;;5.97;85.59
64876;BME280;51369;49.862;9.908;2022-11-11T03:56:03;99857.88;;;6.00;85.85
64876;BME280;51369;49.862;9.908;2022-11-11T03:58:47;99870.38;;;6.01;85.11
64876;BME280;51369;49.862;9.908;2022-11-11T04:01:31;99865.03;;;6.01;85.53
64876;BME280;51369;49.862;9.908;2022-11-11T04:04:34;99873.97;;;6.00;84.91
64876;BME280;51369;49.862;9.908;2022-11-11T04:07:37;99877.53;;;5.99;84.96
64876;BME280;51369;49.862;9.908;2022-11-11T04:10:41;99877.53;;;5.96;84.16
64876;BME280;51369;49.862;9.908;2022-11-11T04:13:26;99887.38;;;5.92;84.64
64876;BME280;51369;49.862;9.908;2022-11-11T04:16:29;99888.22;;;5.88;84.10
64876;BME280;51369;49.862;9.908;2022-11-11T04:19:13;99895.38;;;5.81;84.12
64876;BME280;51369;49.862;9.908;2022-11-11T04:22:16;99897.16;;;5.76;83.92
64876;BME280;51369;49.862;9.908;2022-11-11T04:25:01;99903.41;;;5.71;83.28
64876;BME280;51369;49.862;9.908;2022-11-11T04:28:04;99912.34;;;5.67;83.34
64876;BME280;51369;49.862;9.908;2022-11-11T04:31:06;99918.56;;;5.64;83.79
64876;BME280;51369;49.862;9.908;2022-11-11T04:33:50;99908.75;;;5.59;83.56
64876;BME280;51369;49.862;9.908;2022-11-11T04:36:35;99910.53;;;5.55;83.20
64876;BME280;51369;49.862;9.908;2022-11-11T04:39:18;99906.06;;;5.51;82.99
64876;BME280;51369;49.862;9.908;2022-11-11T04:42:21;99906.03;;;5.48;83.38
64876;BME280;51369;49.862;9.908;2022-11-11T04:45:06;99910.50;;;5.43;83.64
64876;BME280;51369;49.862;9.908;2022-11-11T04:48:10;99914.06;;;5.37;83.00
64876;BME280;51369;49.862;9.908;2022-11-11T04:50:55;99913.16;;;5.34;83.75
64876;BME280;51369;49.862;9.908;2022-11-11T04:53:39;99901.53;;;5.32;83.46
64876;BME280;51369;49.862;9.908;2022-11-11T04:56:23;99910.47;;;5.32;84.32
64876;BME280;51369;49.862;9.908;2022-11-11T04:59:26;99904.22;;;5.32;84.54
64876;BME280;51369;49.862;9.908;2022-11-11T05:02:10;99916.72;;;5.33;84.22
64876;BME280;51369;49.862;9.908;2022-11-11T05:05:13;99915.81;;;5.32;84.86
64876;BME280;51369;49.862;9.908;2022-11-11T05:07:57;99914.94;;;5.30;84.74
64876;BME280;51369;49.862;9.908;2022-11-11T05:11:00;99915.81;;;5.29;84.71
64876;BME280;51369;49.862;9.908;2022-11-11T05:13:45;99912.25;;;5.29;84.42
64876;BME280;51369;49.862;9.908;2022-11-11T05:16:50;99907.78;;;5.26;84.19
64876;BME280;51369;49.862;9.908;2022-11-11T05:19:53;99911.34;;;5.25;84.67
64876;BME280;51369;49.862;9.908;2022-11-11T05:22:56;99905.97;;;5.23;84.68
64876;BME280;51369;49.862;9.908;2022-11-11T05:25:40;99906.88;;;5.22;84.33
64876;BME280;51369;49.862;9.908;2022-11-11T05:28:25;99902.44;;;5.18;84.17
64876;BME280;51369;49.862;9.908;2022-11-11T05:31:09;99906.88;;;5.16;84.55
64876;BME280;51369;49.862;9.908;2022-11-11T05:33:53;99903.31;;;5.13;85.12
64876;BME280;51369;49.862;9.908;2022-11-11T05:36:37;99906.88;;;5.12;84.35
64876;BME280;51369;49.862;9.908;2022-11-11T05:39:21;99911.31;;;5.10;84.66
64876;BME280;51369;49.862;9.908;2022-11-11T05:42:06;99918.47;;;5.11;84.42
64876;BME280;51369;49.862;9.908;2022-11-11T05:44:50;99917.56;;;5.10;84.61
64876;BME280;51369;49.862;9.908;2022-11-11T05:47:34;99923.81;;;5.09;84.51
64876;BME280;51369;49.862;9.908;2022-11-11T05:50:18;99928.28;;;5.09;85.20
64876;BME280;51369;49.862;9.908;2022-11-11T05:53:03;99931.84;;;5.08;85.11
64876;BME280;51369;49.862;9.908;2022-11-11T05:55:46;99927.38;;;5.08;85.35
64876;BME280;51369;49.862;9.908;2022-11-11T05:58:32;99932.75;;;5.10;85.05
64876;BME280;51369;49.862;9.908;2022-11-11T06:01:16;99938.09;;;5.13;85.26
64876;BME280;51369;49.862;9.908;2022-11-11T06:04:01;99942.59;;;5.15;85.43
64876;BME280;51369;49.862;9.908;2022-11-11T06:06:45;99938.13;;;5.14;85.78
64876;BME280;51369;49.862;9.908;2022-11-11T06:09:29;99951.50;;;5.16;86.21
64876;BME280;51369;49.862;9.908;2022-11-11T06:12:13;99943.47;;;5.16;85.20
64876;BME280;51369;49.862;9.908;2022-11-11T06:14:57;99945.25;;;5.12;85.56
64876;BME280;51369;49.862;9.908;2022-11-11T06:17:41;99949.69;;;5.10;85.04
64876;BME280;51369;49.862;9.908;2022-11-11T06:20:25;99950.59;;;5.12;85.43
64876;BME280;51369;49.862;9.908;2022-11-11T06:23:09;99948.81;;;5.14;86.02
64876;BME280;51369;49.862;9.908;2022-11-11T06:25:54;99953.28;;;5.17;85.55
64876;BME280;51369;49.862;9.908;2022-11-11T06:28:56;99958.66;;;5.18;85.40
64876;BME280;51369;49.862;9.908;2022-11-11T06:31:41;99950.63;;;5.18;86.16
64876;BME280;51369;49.862;9.908;2022-11-11T06:34:26;99955.97;;;5.20;85.87
64876;BME280;51369;49.862;9.908;2022-11-11T06:37:10;99962.19;;;5.20;85.96
64876;BME280;51369;49.862;9.908;2022-11-11T06:39:54;99957.75;;;5.21;85.68
64876;BME280;51369;49.862;9.908;2022-11-11T06:42:39;99965.78;;;5.21;86.02
64876;BME280;51369;49.862;9.908;2022-11-11T06:45:23;99964.88;;;5.20;86.27
64876;BME280;51369;49.862;9.908;2022-11-11T06:48:08;99978.28;;;5.17;86.02
64876;BME280;51369;49.862;9.908;2022-11-11T06:50:52;99978.28;;;5.17;85.34
64876;BME280;51369;49.862;9.908;2022-11-11T06:53:36;99976.50;;;5.15;85.55
64876;BME280;51369;49.862;9.908;2022-11-11T06:56:20;99976.47;;;5.13;84.77
64876;BME280;51369;49.862;9.908;2022-11-11T06:59:05;99974.72;;;5.15;85.48
64876;BME280;51369;49.862;9.908;2022-11-11T07:01:49;99987.19;;;5.15;84.75
64876;BME280;51369;49.862;9.908;2022-11-11T07:04:33;99979.16;;;5.15;85.61
64876;BME280;51369;49.862;9.908;2022-11-11T07:07:17;99974.69;;;5.14;84.79
64876;BME280;51369;49.862;9.908;2022-11-11T07:10:01;99987.19;;;5.15;85.63
64876;BME280;51369;49.862;9.908;2022-11-11T07:12:45;99984.53;;;5.18;85.01
64876;BME280;51369;49.862;9.908;2022-11-11T07:15:30;99991.66;;;5.23;85.04
64876;BME280;51369;49.862;9.908;2022-11-11T07:18:14;99981.88;;;5.27;85.47
64876;BME280;51369;49.862;9.908;2022-11-11T07:20:58;99987.25;;;5.32;85.02
64876;BME280;51369;49.862;9.908;2022-11-11T07:23:42;99983.69;;;5.34;85.81
64876;BME280;51369;49.862;9.908;2022-11-11T07:26:26;99982.81;;;5.38;85.80
64876;BME280;51369;49.862;9.908;2022-11-11T07:29:10;99989.06;;;5.43;85.89
64876;BME280;51369;49.862;9.908;2022-11-11T07:31:56;99986.41;;;5.46;86.02
64876;BME280;51369;49.862;9.908;2022-11-11T07:34:40;99985.53;;;5.50;85.75
64876;BME280;51369;49.862;9.908;2022-11-11T07:37:25;99990.91;;;5.55;85.86
64876;BME280;51369;49.862;9.908;2022-11-11T07:40:10;99993.59;;;5.58;85.78
64876;BME280;51369;49.862;9.908;2022-11-11T07:42:54;99998.97;;;5.63;85.08
64876;BME280;51369;49.862;9.908;2022-11-11T07:45:38;100003.44;;;5.67;85.72
64876;BME280;51369;49.862;9.908;2022-11-11T07:48:23;99999.00;;;5.73;85.67
64876;BME280;51369;49.862;9.908;2022-11-11T07:51:07;99999.00;;;5.79;85.23
64876;BME280;51369;49.862;9.908;2022-11-11T07:53:52;99995.44;;;5.85;85.28
64876;BME280;51369;49.862;9.908;2022-11-11T07:56:36;99999.97;;;5.89;85.44
64876;BME280;51369;49.862;9.908;2022-11-11T07:59:20;100004.44;;;5.95;85.71
64876;BME280;51369;49.862;9.908;2022-11-11T08:02:04;100009.81;;;5.98;85.49
64876;BME280;51369;49.862;9.908;2022-11-11T08:04:48;100005.34;;;6.01;85.15
64876;BME280;51369;49.862;9.908;2022-11-11T08:07:33;100007.13;;;6.04;85.61
64876;BME280;51369;49.862;9.908;2022-11-11T08:10:18;100010.72;;;6.09;85.23
64876;BME280;51369;49.862;9.908;2022-11-11T08:13:02;100013.41;;;6.12;85.21
64876;BME280;51369;49.862;9.908;2022-11-11T08:16:07;100011.63;;;6.17;85.16
64876;BME280;51369;49.862;9.908;2022-11-11T08:18:52;100008.94;;;6.23;84.96
64876;BME280;51369;49.862;9.908;2022-11-11T08:21:37;100008.06;;;6.29;85.69
64876;BME280;51369;49.862;9.908;2022-11-11T08:24:21;100011.63;;;6.35;85.25
64876;BME280;51369;49.862;9.908;2022-11-11T08:27:05;100004.47;;;6.40;85.46
64876;BME280;51369;49.862;9.908;2022-11-11T08:29:49;100006.28;;;6.43;85.16
64876;BME280;51369;49.862;9.908;2022-11-11T08:32:33;100000.00;;;6.47;84.99
64876;BME280;51369;49.862;9.908;2022-11-11T08:35:18;100006.28;;;6.50;85.43
64876;BME280;51369;49.862;9.908;2022-11-11T08:38:01;100000.00;;;6.58;85.78
64876;BME280;51369;49.862;9.908;2022-11-11T08:40:46;100002.69;;;6.64;85.48
64876;BME280;51369;49.862;9.908;2022-11-11T08:43:31;99996.41;;;6.71;85.95
64876;BME280;51369;49.862;9.908;2022-11-11T08:46:15;100008.03;;;6.77;85.79
64876;BME280;51369;49.862;9.908;2022-11-11T08:48:59;100007.13;;;6.83;85.74
64876;BME280;51369;49.862;9.908;2022-11-11T08:51:43;100010.72;;;6.88;85.70
64876;BME280;51369;49.862;9.908;2022-11-11T08:54:27;100008.00;;;6.91;85.54
64876;BME280;51369;49.862;9.908;2022-11-11T08:57:12;100012.44;;;6.97;85.72
64876;BME280;51369;49.862;9.908;2022-11-11T08:59:55;100007.97;;;7.00;85.61
64876;BME280;51369;49.862;9.908;2022-11-11T09:02:39;100013.31;;;7.06;85.63
64876;BME280;51369;49.862;9.908;2022-11-11T09:05:23;100013.31;;;7.12;85.88
64876;BME280;51369;49.862;9.908;2022-11-11T09:08:07;100022.25;;;7.17;85.87
64876;BME280;51369;49.862;9.908;2022-11-11T09:10:51;100027.59;;;7.25;86.05
64876;BME280;51369;49.862;9.908;2022-11-11T09:13:36;100015.03;;;7.33;86.09
64876;BME280;51369;49.862;9.908;2022-11-11T09:16:20;100008.75;;;7.39;85.96
64876;BME280;51369;49.862;9.908;2022-11-11T09:19:04;100021.25;;;7.47;86.49
64876;BME280;51369;49.862;9.908;2022-11-11T09:21:50;100023.91;;;7.55;86.48
64876;BME280;51369;49.862;9.908;2022-11-11T09:24:34;100029.22;;;7.66;86.84
64876;BME280;51369;49.862;9.908;2022-11-11T09:27:19;100030.06;;;7.77;87.18
64876;BME280;51369;49.862;9.908;2022-11-11T09:30:04;100042.56;;;7.87;87.19
64876;BME280;51369;49.862;9.908;2022-11-11T09:32:48;100035.38;;;7.94;87.01
64876;BME280;51369;49.862;9.908;2022-11-11T09:35:32;100047.00;;;7.97;86.76
64876;BME280;51369;49.862;9.908;2022-11-11T09:38:16;100051.47;;;7.98;86.20
64876;BME280;51369;49.862;9.908;2022-11-11T09:44:00;100048.75;;;8.06;85.89
64876;BME280;51369;49.862;9.908;2022-11-11T09:50:01;100051.41;;;8.12;86.19
64876;BME280;51369;49.862;9.908;2022-11-11T09:53:14;100051.34;;;8.20;86.04
64876;BME280;51369;49.862;9.908;2022-11-11T09:56:06;100049.50;;;8.29;86.08
64876;BME280;51369;49.862;9.908;2022-11-11T09:59:00;100045.88;;;8.36;86.21
64876;BME280;51369;49.862;9.908;2022-11-11T10:01:54;100040.44;;;8.45;86.38
64876;BME280;51369;49.862;9.908;2022-11-11T10:04:43;100040.34;;;8.56;86.53
64876;BME280;51369;49.862;9.908;2022-11-11T10:07:39;100049.25;;;8.66;86.30
64876;BME280;51369;49.862;9.908;2022-11-11T10:10:40;100042.84;;;8.74;85.65
64876;BME280;51369;49.862;9.908;2022-11-11T10:13:30;100033.81;;;8.83;85.85
64876;BME280;51369;49.862;9.908;2022-11-11T10:16:27;100026.56;;;8.90;85.52
64876;BME280;51369;49.862;9.908;2022-11-11T10:22:24;100038.13;;;8.99;84.50
64876;BME280;51369;49.862;9.908;2022-11-11T10:27:59;100025.50;;;9.06;85.35
64876;BME280;51369;49.862;9.908;2022-11-11T10:30:45;100026.31;;;9.12;84.88
64876;BME280;51369;49.862;9.908;2022-11-11T10:33:40;100031.66;;;9.17;84.94
64876;BME280;51369;49.862;9.908;2022-11-11T10:36:29;100035.19;;;9.24;84.55
64876;BME280;51369;49.862;9.908;2022-11-11T10:39:28;100026.16;;;9.28;84.48
64876;BME280;51369;49.862;9.908;2022-11-11T10:42:16;100026.06;;;9.37;85.23
64876;BME280;51369;49.862;9.908;2022-11-11T10:45:01;100025.94;;;9.46;85.36
64876;BME280;51369;49.862;9.908;2022-11-11T10:50:46;100035.63;;;9.62;84.94
64876;BME280;51369;49.862;9.908;2022-11-11T10:59:30;100030.91;;;9.81;84.73
64876;BME280;51369;49.862;9.908;2022-11-11T11:02:27;100026.31;;;9.88;84.15
64876;BME280;51369;49.862;9.908;2022-11-11T11:05:21;100027.09;;;9.97;84.84
64876;BME280;51369;49.862;9.908;2022-11-11T11:08:20;100028.75;;;10.06;84.49
64876;BME280;51369;49.862;9.908;2022-11-11T11:11:28;100023.28;;;10.12;83.81
64876;BME280;51369;49.862;9.908;2022-11-11T11:14:19;100025.00;;;10.18;83.09
64876;BME280;51369;49.862;9.908;2022-11-11T11:17:22;100032.09;;;10.26;83.74
64876;BME280;51369;49.862;9.908;2022-11-11T11:20:14;100035.53;;;10.37;83.19
64876;BME280;51369;49.862;9.908;2022-11-11T11:23:00;100034.44;;;10.48;83.66
64876;BME280;51369;49.862;9.908;2022-11-11T11:25:52;100027.09;;;10.56;84.46
64876;BME280;51369;49.862;9.908;2022-11-11T11:28:54;100032.31;;;10.66;83.61
64876;BME280;51369;49.862;9.908;2022-11-11T11:31:39;100024.94;;;10.77;83.22
64876;BME280;51369;49.862;9.908;2022-11-11T11:35:00;100029.34;;;10.83;83.01
64876;BME280;51369;49.862;9.908;2022-11-11T11:37:48;100037.25;;;10.94;83.99
64876;BME280;51369;49.862;9.908;2022-11-11T11:40:59;100036.16;;;11.04;84.02
64876;BME280;51369;49.862;9.908;2022-11-11T11:43:43;100030.59;;;11.13;83.43
64876;BME280;51369;49.862;9.908;2022-11-11T11:46:36;100035.88;;;11.19;84.22
64876;BME280;51369;49.862;9.908;2022-11-11T11:49:40;100030.34;;;11.27;83.65
64876;BME280;51369;49.862;9.908;2022-11-11T11:52:40;100012.16;;;11.35;83.99
64876;BME280;51369;49.862;9.908;2022-11-11T11:55:39;100011.13;;;11.40;83.92
64876;BME280;51369;49.862;9.908;2022-11-11T11:58:34;100003.84;;;11.44;82.89
64876;BME280;51369;49.862;9.908;2022-11-11T12:04:21;100006.44;;;11.50;82.55
64876;BME280;51369;49.862;9.908;2022-11-11T12:07:13;100000.06;;;11.53;82.26
64876;BME280;51369;49.862;9.908;2022-11-11T12:28:01;99993.91;;;11.46;81.53
64876;BME280;51369;49.862;9.908;2022-11-11T12:30:51;99989.34;;;11.48;81.98
64876;BME280;51369;49.862;9.908;2022-11-11T12:37:06;99986.47;;;11.56;80.89
64876;BME280;51369;49.862;9.908;2022-11-11T12:40:18;99981.91;;;11.59;81.67
64876;BME280;51369;49.862;9.908;2022-11-11T12:55:31;99975.41;;;12.10;80.85
64876;BME280;51369;49.862;9.908;2022-11-11T13:04:14;99977.06;;;12.51;79.90
64876;BME280;51369;49.862;9.908;2022-11-11T13:16:40;99962.91;;;13.08;78.53
64876;BME280;51369;49.862;9.908;2022-11-11T13:19:57;99958.38;;;13.08;77.63
64876;BME280;51369;49.862;9.908;2022-11-11T13:22:43;99955.53;;;13.13;77.14
64876;BME280;51369;49.862;9.908;2022-11-11T13:25:29;99963.69;;;13.13;77.44
64876;BME280;51369;49.862;9.908;2022-11-11T13:28:36;99963.81;;;13.08;77.89
64876;BME280;51369;49.862;9.908;2022-11-11T13:31:31;99960.25;;;13.06;77.56
64876;BME280;51369;49.862;9.908;2022-11-11T13:34:17;99961.19;;;13.05;77.79
64876;BME280;51369;49.862;9.908;2022-11-11T13:37:03;99963.09;;;13.01;77.10
64876;BME280;51369;49.862;9.908;2022-11-11T13:39:49;99967.66;;;12.99;77.43
64876;BME280;51369;49.862;9.908;2022-11-11T13:42:47;99966.00;;;12.94;77.33
64876;BME280;51369;49.862;9.908;2022-11-11T13:45:39;99955.19;;;12.92;77.51
64876;BME280;51369;49.862;9.908;2022-11-11T13:48:31;99968.84;;;12.89;77.45
64876;BME280;51369;49.862;9.908;2022-11-11T13:54:22;99957.28;;;12.83;78.27
64876;BME280;51369;49.862;9.908;2022-11-11T13:57:19;99956.38;;;12.82;77.74
64876;BME280;51369;49.862;9.908;2022-11-11T14:00:22;99959.03;;;12.84;78.73
64876;BME280;51369;49.862;9.908;2022-11-11T14:09:00;99962.81;;;12.78;78.53
64876;BME280;51369;49.862;9.908;2022-11-11T14:11:44;99964.66;;;12.76;78.91
64876;BME280;51369;49.862;9.908;2022-11-11T14:14:45;99957.56;;;12.72;78.36
64876;BME280;51369;49.862;9.908;2022-11-11T14:17:42;99957.50;;;12.74;79.01
64876;BME280;51369;49.862;9.908;2022-11-11T14:20:43;99943.09;;;12.71;79.24
64876;BME280;51369;49.862;9.908;2022-11-11T14:23:42;99944.09;;;12.69;78.65
64876;BME280;51369;49.862;9.908;2022-11-11T14:26:27;99947.72;;;12.68;78.73
64876;BME280;51369;49.862;9.908;2022-11-11T14:29:18;99949.59;;;12.66;78.56
64876;BME280;51369;49.862;9.908;2022-11-11T14:40:54;99954.13;;;12.65;78.91
64876;BME280;51369;49.862;9.908;2022-11-11T14:43:39;99946.03;;;12.64;79.24
64876;BME280;51369;49.862;9.908;2022-11-11T14:46:23;99946.06;;;12.62;78.99
64876;BME280;51369;49.862;9.908;2022-11-11T14:49:07;99943.38;;;12.61;79.27
64876;BME280;51369;49.862;9.908;2022-11-11T14:51:56;99953.38;;;12.59;79.28
64876;BME280;51369;49.862;9.908;2022-11-11T14:57:54;99947.31;;;12.49;79.08
64876;BME280;51369;49.862;9.908;2022-11-11T15:00:47;99952.84;;;12.45;79.30
64876;BME280;51369;49.862;9.908;2022-11-11T15:03:40;99954.72;;;12.41;79.47
64876;BME280;51369;49.862;9.908;2022-11-11T15:12:34;99969.50;;;12.28;79.31
64876;BME280;51369;49.862;9.908;2022-11-11T15:16:02;99967.94;;;12.18;78.70
64876;BME280;51369;49.862;9.908;2022-11-11T15:24:36;99962.38;;;11.87;79.53
64876;BME280;51369;49.862;9.908;2022-11-11T15:30:13;99956.47;;;11.68;78.74
64876;BME280;51369;49.862;9.908;2022-11-11T15:33:01;99956.66;;;11.59;78.95
64876;BME280;51369;49.862;9.908;2022-11-11T15:36:03;99963.28;;;11.44;78.91
64876;BME280;51369;49.862;9.908;2022-11-11T15:38:51;99954.44;;;11.36;78.73
64876;BME280;51369;49.862;9.908;2022-11-11T15:41:39;99956.44;;;11.26;79.67
64876;BME280;51369;49.862;9.908;2022-11-11T15:44:27;99964.75;;;11.16;79.43
64876;BME280;51369;49.862;9.908;2022-11-11T15:47:14;99964.09;;;11.04;79.60
64876;BME280;51369;49.862;9.908;2022-11-11T15:49:58;99971.50;;;10.93;79.82
64876;BME280;51369;49.862;9.908;2022-11-11T15:52:43;99973.47;;;10.84;79.34
64876;BME280;51369;49.862;9.908;2022-11-11T15:55:30;99972.78;;;10.72;79.02
64876;BME280;51369;49.862;9.908;2022-11-11T15:58:17;99970.31;;;10.59;79.15
64876;BME280;51369;49.862;9.908;2022-11-11T16:01:07;99973.19;;;10.50;80.12
64876;BME280;51369;49.862;9.908;2022-11-11T16:03:53;99972.47;;;10.40;80.00
64876;BME280;51369;49.862;9.908;2022-11-11T16:06:37;99969.97;;;10.29;79.66
64876;BME280;51369;49.862;9.908;2022-11-11T16:09:25;99971.00;;;10.21;80.30
64876;BME280;51369;49.862;9.908;2022-11-11T16:12:10;99967.47;;;10.14;80.17
64876;BME280;51369;49.862;9.908;2022-11-11T16:14:58;99957.66;;;10.08;81.05
64876;BME280;51369;49.862;9.908;2022-11-11T16:17:45;99968.53;;;10.04;81.39
64876;BME280;51369;49.862;9.908;2022-11-11T16:20:35;99969.53;;;9.97;81.62
64876;BME280;51369;49.862;9.908;2022-11-11T16:23:21;99962.41;;;9.91;81.29
64876;BME280;51369;49.862;9.908;2022-11-11T16:26:07;99962.47;;;9.87;81.64
64876;BME280;51369;49.862;9.908;2022-11-11T16:28:53;99961.69;;;9.78;80.94
64876;BME280;51369;49.862;9.908;2022-11-11T16:31:39;99958.19;;;9.72;81.59
64876;BME280;51369;49.862;9.908;2022-11-11T16:37:12;99963.78;;;9.58;81.03
64876;BME280;51369;49.862;9.908;2022-11-11T16:40:26;99960.34;;;9.45;81.09
64876;BME280;51369;49.862;9.908;2022-11-11T16:43:22;99965.84;;;9.38;81.45
64876;BME280;51369;49.862;9.908;2022-11-11T16:46:11;99965.00;;;9.33;81.45
64876;BME280;51369;49.862;9.908;2022-11-11T16:48:57;99962.41;;;9.24;81.38
64876;BME280;51369;49.862;9.908;2022-11-11T16:51:45;99951.75;;;9.14;81.16
64876;BME280;51369;49.862;9.908;2022-11-11T16:54:33;99952.75;;;9.06;81.19